メインページ
METAR-TAF:

METAR-TAF

空港 :

グランドラピッズ, ミシガン州, アメリカ合衆国

緯度: 42-52-51N, 経度: 085-31-22W, 海抜: 242m

現時点の気象観測

当レポートは19分前の02:53(UTC)に作成
南/南西の風 6kt
気温 4°C
湿度 65%
気圧 1012 hPa
視程: 16.1km
高度25000ftの雲はほとんどない

METAR: KGRR 240253Z 21006KT 10SM FEW250 04/M02 A2989 RMK AO2 SLP129 T00391017 53003 $

時間: 22:12 (03:12 UTC)

予報

当レポートは3時間41分前の23:31(UTC)に作成
予報は24日の 00時(UTC)から 24日の 24時(UTC)まで有効
南西の風 12kt
視程: 10km
晴天
24日の 0300時(UTC)から
南西の風 8kt
視程: 10km
晴天
24日の 0700時(UTC)から
北西の風 4kt
視程: 10km
高度25000ftの雲は散在している
24日の 1800時(UTC)から
の風 3kt
視程: 10km
高度25000ftの曇り
24日の 2000時(UTC)から
北東の風 6kt
視程: 10km
高度10000ftの曇り

TAF: KGRR 232331Z 2400/2424 23012KT P6SM SKC FM240300 23008KT P6SM SKC FM240700 31004KT P6SM SCT250 FM241800 08003KT P6SM OVC250 FM242000 05006KT P6SM OVC100

4,000以上の空港の気象観測と天気予報(METAR報とTAF報)

利用可能な観測所は地図上に黄色い丸と赤い丸で示す。

丸の上にカーソルを重ねると観測所名を参照できる。

次にクリックすると気象観測と天気予報を参照できる。

マップの切り替え:黒色「×」印の緑ボタンをクリックして拡大、「-」印の緑ボタンをクリックして縮小、緑色の三角印をクリックして隣りの地図に切り替え


METAR-TAF: